createdAt,value
2022-11-05T00:00:52.363Z,99.30
2022-11-05T00:05:15.886Z,99.30
2022-11-05T00:09:33.420Z,99.40
2022-11-05T00:13:53.988Z,99.50
2022-11-05T00:18:15.813Z,99.40
2022-11-05T00:22:36.528Z,99.50
2022-11-05T00:26:44.242Z,99.50
2022-11-05T00:30:47.048Z,99.50
2022-11-05T00:34:51.468Z,99.40
2022-11-05T00:38:54.292Z,99.60
2022-11-05T00:43:14.548Z,99.60
2022-11-05T00:47:35.041Z,99.90
2022-11-05T00:51:39.331Z,99.90
2022-11-05T00:55:44.658Z,99.90
2022-11-05T00:59:47.643Z,99.90
2022-11-05T01:03:51.866Z,99.90
2022-11-05T01:08:02.622Z,99.90
2022-11-05T01:12:05.774Z,99.90
2022-11-05T01:16:10.581Z,99.90
2022-11-05T01:20:13.734Z,99.90
2022-11-05T01:24:17.877Z,99.90
2022-11-05T01:28:20.740Z,99.90
2022-11-05T01:32:23.597Z,99.90
2022-11-05T01:36:26.558Z,99.90
2022-11-05T01:40:30.794Z,99.90
2022-11-05T01:45:09.481Z,99.90
2022-11-05T01:49:19.042Z,99.90
2022-11-05T01:53:27.416Z,99.90
2022-11-05T01:57:33.378Z,99.90
2022-11-05T02:01:37.138Z,99.90
2022-11-05T02:05:41.726Z,99.90
2022-11-05T02:09:49.935Z,99.90
2022-11-05T02:13:54.206Z,99.90
2022-11-05T02:18:07.482Z,99.90
2022-11-05T02:22:44.627Z,99.90
2022-11-05T02:27:07.805Z,99.90
2022-11-05T02:31:18.567Z,99.90
2022-11-05T02:35:32.947Z,99.90
2022-11-05T02:39:43.977Z,99.90
2022-11-05T02:44:00.421Z,99.90
2022-11-05T02:48:14.170Z,99.90
2022-11-05T02:52:22.160Z,99.90
2022-11-05T02:56:29.337Z,99.90
2022-11-05T03:00:51.408Z,99.90
2022-11-05T03:04:55.622Z,99.90
2022-11-05T03:09:32.942Z,99.90
2022-11-05T03:13:44.852Z,99.90
2022-11-05T03:18:00.038Z,99.90
2022-11-05T03:22:09.215Z,99.90
2022-11-05T03:26:17.548Z,99.90
2022-11-05T03:30:21.431Z,99.90
2022-11-05T03:34:30.242Z,99.90
2022-11-05T03:38:38.271Z,99.90
2022-11-05T03:42:45.438Z,99.90
2022-11-05T03:46:50.779Z,99.90
2022-11-05T03:51:01.171Z,99.90
2022-11-05T03:55:06.778Z,99.90
2022-11-05T03:59:11.046Z,99.90
2022-11-05T04:03:14.091Z,99.90
2022-11-05T04:07:34.454Z,99.90
2022-11-05T04:11:56.388Z,99.90
2022-11-05T04:16:16.707Z,99.90
2022-11-05T04:20:36.865Z,99.90
2022-11-05T04:24:39.688Z,99.90
2022-11-05T04:29:06.778Z,99.90
2022-11-05T04:33:13.173Z,99.90
2022-11-05T04:37:16.233Z,99.90
2022-11-05T04:41:19.483Z,99.90
2022-11-05T04:45:24.245Z,99.90
2022-11-05T04:49:27.049Z,99.90
2022-11-05T04:53:30.981Z,99.90
2022-11-05T04:57:33.877Z,99.90
2022-11-05T05:01:38.211Z,99.90
2022-11-05T05:05:41.159Z,99.90
2022-11-05T05:09:44.000Z,99.90
2022-11-05T05:13:47.567Z,99.90
2022-11-05T05:17:53.399Z,99.90
2022-11-05T05:21:56.191Z,99.90
2022-11-05T05:26:00.478Z,99.90
2022-11-05T05:30:03.450Z,99.90
2022-11-05T05:34:09.034Z,99.90
2022-11-05T05:38:11.902Z,99.90
2022-11-05T05:42:15.213Z,99.90
2022-11-05T05:46:19.377Z,99.90
2022-11-05T05:50:23.511Z,99.90
2022-11-05T05:54:32.642Z,99.90
2022-11-05T05:58:39.754Z,99.90
2022-11-05T06:02:43.196Z,99.90
2022-11-05T06:06:48.187Z,99.90
2022-11-05T06:10:54.190Z,99.90
2022-11-05T06:14:57.062Z,99.90
2022-11-05T06:18:59.940Z,99.90
2022-11-05T06:23:04.508Z,99.90
2022-11-05T06:27:07.363Z,99.90
2022-11-05T06:31:14.098Z,99.90
2022-11-05T06:35:17.934Z,99.90
2022-11-05T06:39:22.074Z,99.90
2022-11-05T06:43:24.915Z,99.90
2022-11-05T06:47:28.033Z,99.90
2022-11-05T06:51:31.171Z,99.90
2022-11-05T06:55:35.331Z,99.90
2022-11-05T06:59:38.207Z,99.90
2022-11-05T07:03:51.964Z,99.90
2022-11-05T07:07:57.112Z,99.90
2022-11-05T07:12:01.267Z,99.90
2022-11-05T07:16:04.135Z,99.90
2022-11-05T07:20:08.806Z,99.90
2022-11-05T07:24:11.617Z,99.90
2022-11-05T07:28:15.775Z,99.90
2022-11-05T07:32:18.940Z,99.90
2022-11-05T07:36:21.755Z,99.90
2022-11-05T07:40:26.655Z,99.90
2022-11-05T07:44:30.834Z,99.90
2022-11-05T07:48:33.661Z,99.90
2022-11-05T07:52:36.470Z,99.90
2022-11-05T07:56:39.318Z,99.90
2022-11-05T08:00:43.644Z,99.90
2022-11-05T08:04:46.630Z,99.90
2022-11-05T08:08:49.482Z,99.90
2022-11-05T08:12:53.922Z,99.90
2022-11-05T08:16:59.619Z,99.90
2022-11-05T08:21:05.104Z,99.90
2022-11-05T08:25:08.999Z,99.90
2022-11-05T08:29:11.929Z,99.90
2022-11-05T08:33:16.511Z,99.90
2022-11-05T08:37:19.405Z,99.90
2022-11-05T08:41:22.256Z,99.90
2022-11-05T08:45:25.667Z,99.80
2022-11-05T08:49:29.768Z,99.50
2022-11-05T08:53:33.043Z,99.30
2022-11-05T08:57:35.838Z,99.10
2022-11-05T09:01:38.861Z,98.70
2022-11-05T09:05:43.725Z,98.30
2022-11-05T09:09:46.952Z,98.10
2022-11-05T09:13:49.758Z,97.60
2022-11-05T09:17:52.838Z,97.00
2022-11-05T09:21:59.288Z,96.50
2022-11-05T09:26:02.220Z,95.00
2022-11-05T09:30:06.030Z,94.00
2022-11-05T09:34:08.872Z,93.80
2022-11-05T09:38:13.082Z,93.30
2022-11-05T09:42:21.070Z,93.50
2022-11-05T09:46:26.490Z,92.30
2022-11-05T09:50:35.585Z,92.30
2022-11-05T09:54:40.138Z,92.40
2022-11-05T09:58:48.480Z,92.40
2022-11-05T10:02:55.519Z,92.40
2022-11-05T10:07:02.545Z,93.30
2022-11-05T10:11:12.748Z,93.60
2022-11-05T10:19:26.108Z,92.70
2022-11-05T10:23:29.741Z,92.90
2022-11-05T10:27:38.508Z,92.80
2022-11-05T10:31:41.624Z,92.60
2022-11-05T10:35:50.157Z,92.70
2022-11-05T10:39:53.000Z,92.90
2022-11-05T10:44:04.903Z,93.00
2022-11-05T10:48:50.451Z,92.80
2022-11-05T10:53:00.471Z,92.70
2022-11-05T10:57:35.405Z,92.10
2022-11-05T11:01:38.551Z,91.90
2022-11-05T11:05:41.599Z,91.70
2022-11-05T11:09:49.617Z,91.00
2022-11-05T11:14:02.218Z,90.70
2022-11-05T11:18:26.991Z,90.80
2022-11-05T11:22:29.940Z,90.50
2022-11-05T11:26:36.971Z,90.20
2022-11-05T11:30:47.343Z,89.70
2022-11-05T11:34:53.643Z,88.80
2022-11-05T11:39:00.970Z,89.30
2022-11-05T11:43:13.504Z,89.00
2022-11-05T11:47:20.747Z,89.40
2022-11-05T11:51:32.379Z,89.40
2022-11-05T11:55:35.212Z,89.40
2022-11-05T12:00:07.213Z,88.00
2022-11-05T12:04:27.120Z,87.60
2022-11-05T12:08:45.590Z,86.00
2022-11-05T12:12:59.223Z,85.20
2022-11-05T12:17:24.270Z,83.60
2022-11-05T12:21:52.088Z,83.80
2022-11-05T12:26:03.017Z,83.90
2022-11-05T12:30:12.700Z,84.10
2022-11-05T12:34:29.406Z,84.80
2022-11-05T12:38:59.929Z,83.90
2022-11-05T12:43:14.936Z,84.00
2022-11-05T12:47:31.228Z,83.60
2022-11-05T12:51:48.999Z,82.20
2022-11-05T12:55:54.692Z,82.50
2022-11-05T13:00:02.969Z,82.90
2022-11-05T13:04:15.711Z,82.20
2022-11-05T13:08:24.253Z,82.50
2022-11-05T13:12:32.579Z,82.50
2022-11-05T13:16:38.688Z,81.50
2022-11-05T13:20:45.787Z,82.20
2022-11-05T13:24:50.844Z,82.20
2022-11-05T13:29:00.367Z,81.90
2022-11-05T13:33:06.827Z,81.60
2022-11-05T13:37:28.872Z,81.00
2022-11-05T13:41:42.669Z,81.40
2022-11-05T13:46:06.258Z,82.00
2022-11-05T13:50:32.194Z,81.90
2022-11-05T13:55:17.068Z,82.00
2022-11-05T13:59:35.694Z,82.00
2022-11-05T14:03:46.929Z,81.80
2022-11-05T14:07:50.277Z,82.20
2022-11-05T14:11:57.316Z,82.50
2022-11-05T14:16:05.482Z,83.30
2022-11-05T14:20:38.442Z,82.70
2022-11-05T14:24:44.079Z,83.20
2022-11-05T14:29:06.465Z,82.50
2022-11-05T14:33:32.073Z,82.20
2022-11-05T14:37:39.340Z,83.50
2022-11-05T14:42:01.728Z,83.20
2022-11-05T14:46:07.047Z,83.40
2022-11-05T14:50:12.794Z,83.80
2022-11-05T14:54:22.046Z,83.50
2022-11-05T14:58:31.415Z,83.60
2022-11-05T15:02:37.956Z,84.00
2022-11-05T15:06:40.796Z,84.40
2022-11-05T15:10:46.128Z,84.80
2022-11-05T15:14:56.953Z,84.80
2022-11-05T15:19:00.882Z,85.40
2022-11-05T15:23:05.773Z,85.80
2022-11-05T15:27:19.249Z,86.10
2022-11-05T15:31:32.434Z,86.20
2022-11-05T15:35:41.170Z,86.70
2022-11-05T15:39:45.608Z,87.20
2022-11-05T15:43:51.238Z,87.70
2022-11-05T15:47:54.031Z,88.00
2022-11-05T15:51:57.086Z,88.20
2022-11-05T15:56:08.998Z,88.30
2022-11-05T16:00:20.375Z,88.90
2022-11-05T16:04:26.614Z,89.20
2022-11-05T16:08:31.425Z,89.30
2022-11-05T16:12:36.674Z,89.10
2022-11-05T16:16:40.944Z,88.50
2022-11-05T16:21:01.049Z,88.40
2022-11-05T16:25:22.803Z,88.80
2022-11-05T16:29:29.408Z,88.80
2022-11-05T16:33:44.823Z,88.90
2022-11-05T16:37:52.068Z,89.00
2022-11-05T16:41:55.378Z,89.30
2022-11-05T16:45:59.950Z,89.60
2022-11-05T16:50:14.318Z,89.80
2022-11-05T16:54:17.106Z,90.10
2022-11-05T16:58:22.342Z,90.20
2022-11-05T17:02:25.509Z,90.10
2022-11-05T17:06:29.742Z,90.20
2022-11-05T17:10:32.896Z,90.40
2022-11-05T17:14:35.770Z,90.30
2022-11-05T17:18:39.116Z,90.40
2022-11-05T17:22:43.278Z,90.40
2022-11-05T17:26:46.739Z,90.40
2022-11-05T17:30:53.024Z,90.40
2022-11-05T17:34:56.399Z,90.40
2022-11-05T17:39:00.897Z,90.20
2022-11-05T17:43:05.006Z,90.30
2022-11-05T17:47:07.981Z,90.30
2022-11-05T17:51:12.377Z,90.20
2022-11-05T17:55:19.569Z,90.30
2022-11-05T17:59:22.633Z,90.40
2022-11-05T18:03:25.775Z,90.30
2022-11-05T18:07:29.025Z,90.30
2022-11-05T18:11:33.946Z,90.30
2022-11-05T18:15:40.898Z,90.30
2022-11-05T18:19:44.457Z,90.40
2022-11-05T18:23:47.441Z,90.30
2022-11-05T18:27:51.617Z,90.50
2022-11-05T18:31:54.496Z,90.60
2022-11-05T18:35:57.320Z,90.60
2022-11-05T18:40:00.669Z,90.70
2022-11-05T18:44:05.630Z,90.50
2022-11-05T18:48:08.927Z,90.30
2022-11-05T18:52:12.591Z,90.30
2022-11-05T18:56:17.726Z,90.20
2022-11-05T19:00:22.299Z,90.30
2022-11-05T19:04:26.211Z,90.30
2022-11-05T19:08:29.023Z,90.30
2022-11-05T19:12:31.921Z,90.30
2022-11-05T19:16:36.359Z,90.30
2022-11-05T19:20:40.001Z,90.30
2022-11-05T19:24:42.822Z,90.40
2022-11-05T19:28:46.246Z,90.40
2022-11-05T19:32:50.928Z,90.40
2022-11-05T19:36:53.981Z,90.40
2022-11-05T19:40:57.041Z,90.30
2022-11-05T19:45:17.035Z,90.30
2022-11-05T19:49:24.987Z,90.30
2022-11-05T19:53:27.972Z,90.40
2022-11-05T19:57:31.018Z,90.40
2022-11-05T20:01:35.171Z,90.60
2022-11-05T20:05:39.570Z,90.60
2022-11-05T20:09:42.667Z,90.70
2022-11-05T20:13:45.613Z,90.70
2022-11-05T20:17:53.195Z,90.70
2022-11-05T20:22:00.559Z,90.80
2022-11-05T20:26:05.094Z,91.00
2022-11-05T20:30:09.854Z,91.00
2022-11-05T20:34:12.740Z,91.10
2022-11-05T20:38:17.544Z,91.10
2022-11-05T20:42:20.390Z,91.20
2022-11-05T20:46:23.981Z,91.30
2022-11-05T20:50:26.828Z,91.40
2022-11-05T20:54:30.945Z,91.50
2022-11-05T20:58:33.748Z,91.60
2022-11-05T21:02:38.581Z,91.60
2022-11-05T21:06:41.532Z,91.70
2022-11-05T21:10:50.881Z,91.90
2022-11-05T21:14:54.087Z,92.00
2022-11-05T21:18:56.909Z,92.10
2022-11-05T21:22:59.856Z,92.30
2022-11-05T21:27:04.014Z,92.50
2022-11-05T21:31:08.170Z,92.60
2022-11-05T21:35:10.972Z,92.70
2022-11-05T21:39:14.098Z,92.90
2022-11-05T21:43:18.485Z,93.00
2022-11-05T21:47:21.280Z,93.10
2022-11-05T21:51:41.939Z,93.20
2022-11-05T21:56:04.731Z,93.30
2022-11-05T22:00:11.561Z,93.20
2022-11-05T22:04:14.450Z,93.30
2022-11-05T22:08:17.288Z,93.40
2022-11-05T22:12:20.146Z,93.40
2022-11-05T22:16:24.290Z,93.40
2022-11-05T22:20:27.104Z,93.40
2022-11-05T22:24:31.664Z,93.40
2022-11-05T22:28:34.452Z,93.50
2022-11-05T22:32:38.921Z,93.50
2022-11-05T22:36:41.706Z,93.60
2022-11-05T22:40:44.504Z,93.70
2022-11-05T22:44:47.292Z,93.70
2022-11-05T22:48:51.849Z,93.80
2022-11-05T22:52:54.710Z,93.80
2022-11-05T22:56:57.609Z,93.80
2022-11-05T23:01:00.718Z,93.80
2022-11-05T23:05:05.042Z,93.70
2022-11-05T23:09:31.019Z,93.80
2022-11-05T23:13:33.845Z,93.70
2022-11-05T23:17:54.282Z,93.60
2022-11-05T23:22:16.283Z,93.60
2022-11-05T23:26:36.474Z,93.60
2022-11-05T23:31:03.374Z,93.60
2022-11-05T23:35:07.095Z,93.50
2022-11-05T23:39:10.330Z,93.40
2022-11-05T23:43:30.530Z,93.40
2022-11-05T23:47:51.051Z,93.40
2022-11-05T23:51:53.871Z,93.40
2022-11-05T23:56:02.301Z,93.40
